Time;durP1;ratioP1;P1;durP2;ratioP2;P2;SDS_P1;SDS_P2;PMS_P1;PMS_P2;Temp;Humidity;BMP_temperature;BMP_pressure;BME280_temperature;BME280_humidity;BME280_pressure;Samples;Min_cycle;Max_cycle;Signal;HPM_P1;HPM_P2
2023/02/25 00:01:44;;;;;;;9.80;6.17;;;6.30;99.90;;;;;;5014241;28;20609;-74
2023/02/25 00:04:30;;;;;;;9.85;6.18;;;6.30;99.90;;;;;;5012593;28;20451;-74
2023/02/25 00:07:15;;;;;;;7.60;5.97;;;6.20;99.90;;;;;;5011653;28;20207;-74
2023/02/25 00:10:01;;;;;;;9.85;6.20;;;6.20;99.90;;;;;;5019020;28;20327;-74
2023/02/25 00:12:48;;;;;;;9.38;6.38;;;6.10;99.90;;;;;;5019631;28;20265;-74
2023/02/25 00:15:33;;;;;;;11.93;6.95;;;6.10;99.90;;;;;;5020795;28;20227;-74
2023/02/25 00:18:19;;;;;;;8.35;5.18;;;6.20;99.90;;;;;;5019446;28;21025;-73
2023/02/25 00:21:06;;;;;;;12.35;7.07;;;6.20;99.90;;;;;;5019692;28;20714;-73
2023/02/25 00:23:53;;;;;;;11.20;6.30;;;6.20;99.90;;;;;;5015156;28;20208;-73
2023/02/25 00:26:38;;;;;;;11.65;6.85;;;6.20;99.90;;;;;;5002570;28;20910;-74
2023/02/25 00:29:25;;;;;;;10.45;6.30;;;6.20;99.90;;;;;;5027297;28;20207;-73
2023/02/25 00:32:11;;;;;;;11.65;5.68;;;6.10;99.90;;;;;;5013083;28;20226;-73
2023/02/25 00:34:57;;;;;;;8.02;5.63;;;6.10;99.90;;;;;;5006107;28;20203;-74
2023/02/25 00:37:42;;;;;;;8.90;5.38;;;6.20;99.90;;;;;;5021285;28;20234;-74
2023/02/25 00:40:28;;;;;;;12.20;6.45;;;6.20;99.90;;;;;;5021138;28;20206;-74
2023/02/25 00:43:14;;;;;;;12.95;6.50;;;6.20;99.90;;;;;;5030117;28;20223;-74
2023/02/25 00:46:01;;;;;;;12.18;5.40;;;6.20;99.90;;;;;;5014467;28;20207;-74
2023/02/25 00:48:47;;;;;;;13.18;5.10;;;6.20;99.90;;;;;;5018387;28;20208;-74
2023/02/25 00:51:33;;;;;;;13.52;5.45;;;6.20;99.90;;;;;;5023718;28;20304;-74
2023/02/25 00:54:19;;;;;;;10.75;5.88;;;6.10;99.90;;;;;;5014435;28;20252;-73
2023/02/25 00:57:05;;;;;;;10.90;6.17;;;6.10;99.90;;;;;;5018368;28;20202;-74
2023/02/25 00:59:50;;;;;;;17.15;6.32;;;6.10;99.90;;;;;;5007691;28;20536;-74
2023/02/25 01:02:37;;;;;;;8.90;5.43;;;6.10;99.90;;;;;;5013210;28;20301;-73
2023/02/25 01:05:24;;;;;;;11.25;5.82;;;6.20;99.90;;;;;;5016684;28;20446;-74
2023/02/25 01:08:10;;;;;;;9.48;5.30;;;6.20;99.90;;;;;;5014819;28;20699;-74
2023/02/25 01:10:56;;;;;;;11.40;5.53;;;6.10;99.90;;;;;;5010730;28;20350;-74
2023/02/25 01:13:42;;;;;;;10.55;5.50;;;6.10;99.90;;;;;;5013925;28;20453;-74
2023/02/25 01:16:30;;;;;;;10.20;5.50;;;6.10;99.90;;;;;;5014480;28;20523;-74
2023/02/25 01:19:19;;;;;;;7.90;5.20;;;6.10;99.90;;;;;;5008960;28;20522;-74
2023/02/25 01:22:06;;;;;;;15.10;6.10;;;6.10;99.90;;;;;;5009349;28;20223;-74
2023/02/25 01:24:54;;;;;;;10.57;5.40;;;6.10;99.90;;;;;;5020810;28;20449;-73
2023/02/25 01:27:40;;;;;;;8.55;4.55;;;6.10;99.90;;;;;;5020794;28;20207;-73
2023/02/25 01:30:25;;;;;;;10.63;5.22;;;6.20;99.90;;;;;;5016624;28;20246;-73
2023/02/25 01:33:11;;;;;;;10.10;5.07;;;6.00;99.90;;;;;;5007737;28;20208;-73
2023/02/25 01:36:01;;;;;;;11.82;4.63;;;6.00;99.90;;;;;;5018096;28;20530;-73
2023/02/25 01:38:48;;;;;;;11.52;4.90;;;5.90;99.90;;;;;;5003330;28;20307;-74
2023/02/25 01:41:36;;;;;;;9.47;6.00;;;5.90;99.90;;;;;;5008130;28;20239;-74
2023/02/25 01:44:24;;;;;;;13.50;5.35;;;5.90;99.90;;;;;;5012895;28;20963;-74
2023/02/25 01:47:20;;;;;;;8.73;5.53;;;5.90;99.90;;;;;;5012252;28;20215;-75
2023/02/25 01:50:07;;;;;;;16.90;4.63;;;5.90;99.90;;;;;;5008945;28;20206;-73
2023/02/25 01:52:58;;;;;;;11.10;5.10;;;5.90;99.90;;;;;;5007222;28;20199;-75
2023/02/25 01:55:44;;;;;;;11.38;4.97;;;5.80;99.90;;;;;;5008017;28;20203;-74
2023/02/25 01:58:31;;;;;;;14.75;5.90;;;5.70;99.90;;;;;;5006786;28;20265;-74
2023/02/25 02:01:21;;;;;;;9.43;5.45;;;5.60;99.90;;;;;;5014236;28;20322;-74
2023/02/25 02:04:10;;;;;;;12.07;5.63;;;5.60;99.90;;;;;;5010104;28;20307;-74
2023/02/25 02:06:57;;;;;;;15.02;5.50;;;5.70;99.90;;;;;;5016643;28;20203;-74
2023/02/25 02:09:54;;;;;;;9.10;5.45;;;5.70;99.90;;;;;;5011204;28;20768;-74
2023/02/25 02:12:43;;;;;;;8.98;4.72;;;5.70;99.90;;;;;;5010072;28;20223;-74
2023/02/25 02:15:35;;;;;;;13.27;4.50;;;5.70;99.90;;;;;;5011751;28;20685;-74
2023/02/25 02:18:21;;;;;;;8.95;4.60;;;5.70;99.90;;;;;;5005358;28;20290;-74
2023/02/25 02:21:21;;;;;;;7.38;5.00;;;5.60;99.90;;;;;;5013380;28;20235;-74
2023/02/25 02:24:42;;;;;;;11.30;5.13;;;5.60;99.90;;;;;;5011897;28;20203;-74
2023/02/25 02:27:43;;;;;;;9.15;5.38;;;5.60;99.90;;;;;;5003769;28;20605;-76
2023/02/25 02:30:51;;;;;;;13.70;5.80;;;5.70;99.90;;;;;;5018882;28;20231;-74
2023/02/25 02:33:47;;;;;;;8.55;4.90;;;5.70;99.90;;;;;;5004537;28;20343;-74
2023/02/25 02:36:42;;;;;;;11.02;5.60;;;5.70;99.90;;;;;;5006892;28;20207;-75
2023/02/25 02:39:43;;;;;;;13.40;6.00;;;5.70;99.90;;;;;;5011629;28;20223;-74
2023/02/25 02:42:37;;;;;;;7.97;5.07;;;5.70;99.90;;;;;;5016434;28;20855;-75
2023/02/25 02:45:28;;;;;;;13.67;5.47;;;5.70;99.90;;;;;;5009100;28;20489;-74
2023/02/25 02:48:18;;;;;;;14.67;5.33;;;5.70;99.90;;;;;;5009113;28;20445;-74
2023/02/25 02:51:11;;;;;;;11.20;4.75;;;5.70;99.90;;;;;;5015117;28;20473;-76
2023/02/25 02:54:01;;;;;;;13.25;5.55;;;5.70;99.90;;;;;;5014784;28;20285;-75
2023/02/25 02:56:49;;;;;;;16.10;5.80;;;5.70;99.90;;;;;;5012990;28;20251;-77
2023/02/25 02:59:41;;;;;;;14.40;4.40;;;5.70;99.90;;;;;;5015676;28;20281;-74
2023/02/25 03:02:31;;;;;;;13.75;4.97;;;5.70;99.90;;;;;;5014450;28;20239;-74
2023/02/25 03:05:18;;;;;;;9.65;4.55;;;5.70;99.90;;;;;;5014189;28;20706;-74
2023/02/25 03:08:09;;;;;;;9.48;4.10;;;5.70;99.90;;;;;;5011562;28;20289;-74
2023/02/25 03:10:55;;;;;;;10.98;4.30;;;5.70;99.90;;;;;;5023416;28;20226;-74
2023/02/25 03:13:41;;;;;;;9.20;4.45;;;5.80;99.90;;;;;;5023286;28;20252;-74
2023/02/25 03:16:31;;;;;;;8.77;4.30;;;5.80;99.90;;;;;;5010450;28;20206;-74
2023/02/25 03:19:20;;;;;;;7.28;3.17;;;5.80;99.90;;;;;;5011011;28;20228;-75
2023/02/25 03:22:10;;;;;;;8.07;3.65;;;5.80;99.90;;;;;;5012352;28;20421;-74
2023/02/25 03:25:05;;;;;;;10.18;4.55;;;5.80;99.90;;;;;;5013901;28;20477;-74
2023/02/25 03:27:53;;;;;;;6.35;3.20;;;5.90;99.90;;;;;;5008387;28;20657;-74
2023/02/25 03:30:44;;;;;;;10.77;3.25;;;5.80;99.90;;;;;;5011863;28;20691;-75
2023/02/25 03:33:36;;;;;;;6.03;3.00;;;5.80;99.90;;;;;;5014333;28;20191;-74
2023/02/25 03:36:27;;;;;;;11.57;4.10;;;5.70;99.90;;;;;;5018216;28;20575;-75
2023/02/25 03:39:18;;;;;;;10.35;4.40;;;5.70;99.90;;;;;;5017311;28;20290;-74
2023/02/25 03:42:10;;;;;;;14.80;4.50;;;5.70;99.90;;;;;;5014731;28;20226;-74
2023/02/25 03:45:00;;;;;;;7.60;3.07;;;5.60;99.90;;;;;;5010933;28;20246;-74
2023/02/25 03:47:46;;;;;;;6.22;3.53;;;5.60;99.90;;;;;;5005129;28;21014;-75
2023/02/25 03:50:35;;;;;;;16.93;4.57;;;5.70;99.90;;;;;;5013809;28;20699;-75
2023/02/25 03:53:21;;;;;;;6.10;2.63;;;5.70;99.90;;;;;;5018150;28;20463;-74
2023/02/25 03:56:10;;;;;;;8.13;3.25;;;5.70;99.90;;;;;;5013699;28;20203;-74
2023/02/25 03:58:57;;;;;;;9.52;3.28;;;5.60;99.90;;;;;;5015006;28;20796;-75
2023/02/25 04:01:46;;;;;;;10.82;3.00;;;5.70;99.90;;;;;;5010176;28;20231;-74
2023/02/25 04:04:32;;;;;;;9.07;2.55;;;5.70;99.90;;;;;;5009039;28;22308;-74
2023/02/25 04:07:17;;;;;;;7.45;2.42;;;5.80;99.90;;;;;;5001808;28;21073;-74
2023/02/25 04:10:04;;;;;;;4.75;2.17;;;5.80;99.90;;;;;;5012887;28;20241;-74
2023/02/25 04:12:50;;;;;;;9.95;2.80;;;5.70;99.90;;;;;;5013893;28;20691;-76
2023/02/25 04:15:38;;;;;;;9.40;3.07;;;5.80;99.90;;;;;;5007799;28;20216;-75
2023/02/25 04:18:25;;;;;;;8.93;2.95;;;5.80;99.90;;;;;;5010537;28;20525;-74
2023/02/25 04:21:24;;;;;;;5.70;2.90;;;5.80;99.90;;;;;;5016259;28;20226;-75
2023/02/25 04:24:10;;;;;;;5.60;2.63;;;5.70;99.90;;;;;;5008963;28;20247;-77
2023/02/25 04:26:57;;;;;;;11.98;3.10;;;5.70;99.90;;;;;;5011722;28;20335;-74
2023/02/25 04:29:43;;;;;;;12.93;3.20;;;5.60;99.90;;;;;;5011818;28;20680;-74
2023/02/25 04:32:30;;;;;;;18.67;3.50;;;5.60;99.90;;;;;;5013382;28;20334;-74
2023/02/25 04:35:16;;;;;;;7.93;2.35;;;5.50;99.90;;;;;;5004913;28;20214;-74
2023/02/25 04:38:02;;;;;;;7.60;3.28;;;5.60;99.90;;;;;;5012781;28;20296;-74
2023/02/25 04:40:47;;;;;;;21.98;3.10;;;5.60;99.90;;;;;;5013496;28;20276;-74
2023/02/25 04:43:33;;;;;;;8.65;3.10;;;5.70;99.90;;;;;;5010888;28;20210;-74
2023/02/25 04:46:19;;;;;;;8.20;2.80;;;5.80;99.90;;;;;;5006714;28;20757;-75
2023/02/25 04:49:07;;;;;;;7.95;2.97;;;5.90;99.90;;;;;;5011534;28;20450;-74
2023/02/25 04:51:52;;;;;;;7.50;2.92;;;5.90;99.90;;;;;;5012435;28;20230;-74
2023/02/25 04:54:38;;;;;;;7.05;2.00;;;5.80;99.90;;;;;;5009694;28;20209;-75
2023/02/25 04:57:24;;;;;;;6.65;2.80;;;5.70;99.90;;;;;;5012285;28;20683;-74
2023/02/25 05:00:17;;;;;;;6.63;2.28;;;5.60;99.90;;;;;;5014236;28;20274;-77
2023/02/25 05:03:03;;;;;;;10.93;3.05;;;5.50;99.90;;;;;;5014387;28;20228;-75
2023/02/25 05:05:50;;;;;;;7.45;2.47;;;5.50;99.90;;;;;;5000303;28;20230;-74
2023/02/25 05:08:37;;;;;;;11.15;2.60;;;5.40;99.90;;;;;;5018270;28;20211;-77
2023/02/25 05:11:24;;;;;;;7.75;3.25;;;5.40;99.90;;;;;;5011823;28;20238;-74
2023/02/25 05:14:10;;;;;;;6.05;2.30;;;5.50;99.90;;;;;;5012351;28;20207;-74
2023/02/25 05:16:56;;;;;;;8.50;2.90;;;5.50;99.90;;;;;;5008168;28;20202;-74
2023/02/25 05:19:41;;;;;;;11.18;3.13;;;5.50;99.90;;;;;;5013285;28;20231;-74
2023/02/25 05:22:28;;;;;;;6.30;2.03;;;5.50;99.90;;;;;;5012405;28;20230;-75
2023/02/25 05:25:14;;;;;;;11.73;2.73;;;5.50;99.90;;;;;;5007159;28;20967;-74
2023/02/25 05:28:00;;;;;;;12.73;3.20;;;5.50;99.90;;;;;;5012692;28;20443;-74
2023/02/25 05:30:45;;;;;;;7.40;2.75;;;5.50;99.90;;;;;;5007778;28;20278;-74
2023/02/25 05:33:31;;;;;;;15.00;2.63;;;5.50;99.90;;;;;;5013756;28;20200;-75
2023/02/25 05:36:18;;;;;;;7.63;2.50;;;5.60;99.90;;;;;;5008108;28;20521;-75
2023/02/25 05:39:06;;;;;;;8.20;2.33;;;5.60;99.90;;;;;;5017577;28;20195;-74
2023/02/25 05:41:51;;;;;;;3.30;1.98;;;5.60;99.90;;;;;;5018223;28;20593;-75
2023/02/25 05:44:37;;;;;;;11.17;3.17;;;5.50;99.90;;;;;;5008297;28;20258;-75
2023/02/25 05:47:23;;;;;;;7.70;2.40;;;5.40;99.90;;;;;;5012648;28;20437;-74
2023/02/25 05:50:10;;;;;;;8.75;2.72;;;5.40;99.90;;;;;;5013534;28;20208;-75
2023/02/25 05:52:55;;;;;;;5.17;2.57;;;5.40;99.90;;;;;;5008030;28;20321;-75
2023/02/25 05:55:43;;;;;;;7.50;2.70;;;5.40;99.90;;;;;;5007286;28;20446;-74
2023/02/25 05:58:29;;;;;;;7.07;2.92;;;5.50;99.90;;;;;;5011403;28;20700;-74
2023/02/25 06:01:16;;;;;;;9.15;2.50;;;5.50;99.90;;;;;;5015110;28;20301;-75
2023/02/25 06:04:01;;;;;;;5.53;2.60;;;5.50;99.90;;;;;;5005604;28;20622;-76
2023/02/25 06:06:49;;;;;;;17.88;2.95;;;5.60;99.90;;;;;;5009846;28;20282;-74
2023/02/25 06:09:35;;;;;;;8.35;2.42;;;5.70;99.90;;;;;;5014941;28;20262;-75
2023/02/25 06:12:22;;;;;;;11.43;3.55;;;5.70;99.90;;;;;;5023619;28;20231;-76
2023/02/25 06:15:08;;;;;;;9.02;2.50;;;5.70;99.90;;;;;;5010827;28;20585;-74
2023/02/25 06:17:54;;;;;;;7.88;2.70;;;5.60;99.90;;;;;;5013469;28;20710;-74
2023/02/25 06:20:39;;;;;;;7.55;3.13;;;5.50;99.90;;;;;;5013847;28;20214;-74
2023/02/25 06:23:25;;;;;;;11.52;2.67;;;5.50;99.90;;;;;;5021377;28;20207;-74
2023/02/25 06:26:14;;;;;;;12.57;2.03;;;5.50;99.90;;;;;;5016265;28;20286;-74
2023/02/25 06:29:01;;;;;;;15.57;2.80;;;5.50;99.90;;;;;;5016998;28;20451;-75
2023/02/25 06:31:46;;;;;;;6.53;2.35;;;5.50;99.90;;;;;;5018814;28;21010;-76
2023/02/25 06:34:33;;;;;;;8.23;2.23;;;5.50;99.90;;;;;;5007425;28;20746;-77
2023/02/25 06:37:19;;;;;;;10.70;3.35;;;5.50;99.90;;;;;;5022713;28;20565;-76
2023/02/25 06:40:06;;;;;;;9.15;2.92;;;5.50;99.90;;;;;;5028040;28;20735;-74
2023/02/25 06:42:52;;;;;;;7.65;3.00;;;5.50;99.90;;;;;;5018717;28;20315;-77
2023/02/25 06:45:39;;;;;;;15.73;3.67;;;5.50;99.90;;;;;;5010757;28;20508;-74
2023/02/25 06:48:25;;;;;;;14.03;3.27;;;5.40;99.90;;;;;;5006166;28;20207;-77
2023/02/25 06:51:11;;;;;;;19.67;3.27;;;5.50;99.90;;;;;;5013161;28;21003;-73
2023/02/25 06:53:57;;;;;;;12.20;3.33;;;5.60;99.90;;;;;;5013861;28;20486;-75
2023/02/25 06:56:43;;;;;;;11.97;3.17;;;5.60;99.90;;;;;;5013097;28;20421;-74
2023/02/25 06:59:28;;;;;;;7.00;3.00;;;5.70;99.90;;;;;;5020700;28;20525;-74
2023/02/25 07:02:15;;;;;;;10.73;3.50;;;5.60;99.90;;;;;;5019694;28;20473;-75
2023/02/25 07:05:01;;;;;;;9.33;3.53;;;5.60;99.90;;;;;;5013597;28;20435;-74
2023/02/25 07:07:47;;;;;;;14.13;4.30;;;5.60;99.90;;;;;;5024504;28;20451;-74
2023/02/25 07:10:34;;;;;;;18.52;4.25;;;5.60;99.90;;;;;;5010483;28;20204;-74
2023/02/25 07:13:20;;;;;;;19.50;4.50;;;5.60;99.90;;;;;;5013208;28;20234;-76
2023/02/25 07:16:06;;;;;;;11.93;3.63;;;5.60;99.90;;;;;;5013943;28;20425;-74
2023/02/25 07:18:53;;;;;;;11.80;3.80;;;5.60;99.90;;;;;;5025016;28;20204;-75
2023/02/25 07:21:39;;;;;;;15.77;3.73;;;5.70;99.90;;;;;;5018126;28;20846;-75
2023/02/25 07:24:25;;;;;;;29.03;4.37;;;5.60;99.90;;;;;;5004670;28;20533;-75
2023/02/25 07:27:13;;;;;;;11.57;3.60;;;5.50;99.90;;;;;;5016560;28;20802;-74
2023/02/25 07:30:00;;;;;;;12.57;4.20;;;5.60;99.90;;;;;;5012454;28;20962;-74
2023/02/25 07:32:46;;;;;;;12.57;3.63;;;5.60;99.90;;;;;;5013408;28;20487;-74
2023/02/25 07:35:33;;;;;;;14.63;5.07;;;5.60;99.90;;;;;;5016583;28;20207;-74
2023/02/25 07:38:18;;;;;;;9.50;3.50;;;5.70;99.90;;;;;;5024395;28;21107;-74
2023/02/25 07:41:05;;;;;;;33.80;13.97;;;5.70;99.90;;;;;;5017406;28;20489;-74
2023/02/25 07:43:52;;;;;;;53.50;20.10;;;5.60;99.90;;;;;;5026489;22;20493;-73
2023/02/25 07:46:38;;;;;;;43.08;15.05;;;5.60;99.90;;;;;;5010434;28;20461;-73
2023/02/25 07:49:23;;;;;;;32.80;10.53;;;5.60;99.90;;;;;;5017590;28;20203;-73
2023/02/25 07:52:10;;;;;;;23.87;7.23;;;5.60;99.90;;;;;;4998424;28;20443;-72
2023/02/25 07:54:56;;;;;;;28.13;7.80;;;5.70;99.90;;;;;;4990668;28;20517;-73
2023/02/25 07:57:41;;;;;;;17.53;5.80;;;5.80;99.90;;;;;;4990646;28;20964;-73
2023/02/25 08:00:27;;;;;;;18.17;5.97;;;5.80;99.90;;;;;;4986856;28;20472;-73
2023/02/25 08:03:13;;;;;;;12.40;4.57;;;5.80;99.90;;;;;;4984966;28;20578;-72
2023/02/25 08:06:01;;;;;;;12.60;5.30;;;5.90;99.90;;;;;;4982751;28;20807;-73
2023/02/25 08:08:49;;;;;;;12.50;5.47;;;5.90;99.90;;;;;;4988285;28;21225;-73
2023/02/25 08:11:35;;;;;;;15.25;5.20;;;5.90;99.90;;;;;;4988585;28;20463;-72
2023/02/25 08:14:21;;;;;;;14.43;5.13;;;6.00;99.90;;;;;;4988790;28;20287;-73
2023/02/25 08:17:07;;;;;;;17.30;5.50;;;5.90;99.90;;;;;;4985148;28;20216;-72
2023/02/25 08:19:52;;;;;;;11.37;4.20;;;5.90;99.90;;;;;;4984571;28;20439;-73
2023/02/25 08:22:38;;;;;;;19.75;3.90;;;5.90;99.90;;;;;;4982410;28;20598;-74
2023/02/25 08:25:25;;;;;;;11.52;4.10;;;6.10;99.90;;;;;;4990208;28;20203;-73
2023/02/25 08:28:11;;;;;;;9.43;3.27;;;6.10;99.90;;;;;;4990543;28;20252;-73
2023/02/25 08:30:57;;;;;;;22.88;7.45;;;6.10;99.90;;;;;;4992629;28;20468;-73
2023/02/25 08:33:48;;;;;;;15.23;6.07;;;6.10;99.90;;;;;;4996249;28;20222;-73
2023/02/25 08:36:35;;;;;;;16.15;4.55;;;6.10;99.90;;;;;;5001661;28;20679;-74
2023/02/25 08:39:20;;;;;;;42.73;22.07;;;6.00;99.90;;;;;;4993575;28;20719;-74
2023/02/25 08:42:07;;;;;;;48.77;22.00;;;6.10;99.90;;;;;;4994393;28;20450;-73
2023/02/25 08:44:53;;;;;;;61.43;23.10;;;6.00;99.90;;;;;;4987923;28;20458;-74
2023/02/25 08:47:38;;;;;;;17.83;7.53;;;5.90;99.90;;;;;;4994284;28;21005;-74
2023/02/25 08:50:24;;;;;;;26.33;5.20;;;5.90;99.90;;;;;;4983262;28;20333;-73
2023/02/25 08:53:11;;;;;;;19.38;7.65;;;5.90;99.90;;;;;;4985158;28;20476;-72
2023/02/25 08:55:56;;;;;;;24.80;6.32;;;6.00;99.90;;;;;;4990762;28;20235;-73
2023/02/25 08:58:43;;;;;;;33.17;12.60;;;6.00;99.90;;;;;;4999066;28;20586;-73
2023/02/25 09:01:43;;;;;;;29.10;8.65;;;6.00;99.90;;;;;;4978898;28;20534;-73
2023/02/25 09:04:29;;;;;;;14.18;4.68;;;6.00;99.90;;;;;;5000774;28;20232;-73
2023/02/25 09:07:16;;;;;;;22.25;6.13;;;6.00;99.90;;;;;;4990166;28;20200;-72
2023/02/25 09:10:03;;;;;;;15.05;5.05;;;5.90;99.90;;;;;;4986351;28;20276;-74
2023/02/25 09:12:48;;;;;;;7.55;4.43;;;5.90;99.90;;;;;;4992755;28;20226;-73
2023/02/25 09:15:35;;;;;;;13.90;5.45;;;5.90;99.90;;;;;;4997174;28;20279;-73
2023/02/25 09:18:21;;;;;;;16.10;4.40;;;5.90;99.90;;;;;;4995242;28;20225;-73
2023/02/25 09:21:07;;;;;;;9.27;3.90;;;5.90;99.90;;;;;;4986691;28;20235;-73
2023/02/25 09:23:52;;;;;;;15.40;3.88;;;5.90;99.90;;;;;;4985525;28;20514;-73
2023/02/25 09:26:38;;;;;;;12.80;4.57;;;6.00;99.90;;;;;;4989274;28;20741;-74
2023/02/25 09:29:23;;;;;;;8.90;3.70;;;5.90;99.90;;;;;;4987078;28;20479;-74
2023/02/25 09:32:17;;;;;;;20.23;5.13;;;5.90;99.90;;;;;;4987366;28;20208;-73
2023/02/25 09:35:06;;;;;;;20.75;9.90;;;6.00;99.90;;;;;;4993512;28;20672;-74
2023/02/25 09:37:51;;;;;;;15.53;5.73;;;6.00;99.90;;;;;;5004361;28;20210;-74
2023/02/25 09:40:37;;;;;;;20.45;7.55;;;6.00;99.90;;;;;;4983654;28;20502;-73
2023/02/25 09:43:28;;;;;;;24.40;10.20;;;6.00;99.90;;;;;;4986559;28;20255;-73
2023/02/25 09:46:18;;;;;;;14.73;6.25;;;6.10;99.90;;;;;;4984942;28;20541;-73
2023/02/25 09:49:09;;;;;;;19.77;8.38;;;6.10;99.90;;;;;;4997788;28;20207;-73
2023/02/25 09:51:59;;;;;;;16.58;6.53;;;6.10;99.90;;;;;;4991940;28;20208;-73
2023/02/25 09:54:46;;;;;;;14.40;4.55;;;6.20;99.90;;;;;;4995200;28;20788;-74
2023/02/25 09:57:38;;;;;;;21.00;7.22;;;6.30;99.90;;;;;;4982008;28;20216;-74
2023/02/25 10:00:23;;;;;;;13.13;6.80;;;6.40;99.90;;;;;;4993425;28;20235;-73
2023/02/25 10:03:17;;;;;;;29.35;11.98;;;6.30;99.90;;;;;;4999302;28;20471;-74
2023/02/25 10:06:12;;;;;;;13.52;4.00;;;6.30;99.90;;;;;;4999191;28;20257;-73
2023/02/25 10:09:06;;;;;;;10.73;3.63;;;6.30;99.90;;;;;;4996213;28;20208;-73
2023/02/25 10:11:56;;;;;;;9.90;4.32;;;6.40;99.90;;;;;;4983974;28;20566;-73
2023/02/25 10:15:22;;;;;;;7.40;3.60;;;6.50;99.90;;;;;;4995812;28;20272;-73
2023/02/25 10:19:12;;;;;;;8.73;3.83;;;6.50;99.90;;;;;;4994874;28;20432;-73
2023/02/25 10:22:13;;;;;;;15.73;4.70;;;6.60;99.90;;;;;;4984370;28;20522;-73
2023/02/25 10:25:10;;;;;;;20.37;3.87;;;6.70;99.90;;;;;;5009157;28;21014;-73
2023/02/25 10:28:00;;;;;;;7.00;4.23;;;6.60;99.90;;;;;;5005419;28;20855;-73
2023/02/25 10:30:51;;;;;;;10.00;4.20;;;6.60;99.90;;;;;;4994456;28;20723;-73
2023/02/25 10:33:40;;;;;;;7.77;3.37;;;6.70;99.90;;;;;;5002108;28;20446;-73
2023/02/25 10:36:30;;;;;;;12.10;4.50;;;6.60;99.90;;;;;;5004559;28;20464;-73
2023/02/25 10:39:17;;;;;;;11.60;4.90;;;6.50;99.90;;;;;;5001186;28;20506;-73
2023/02/25 10:42:03;;;;;;;8.73;4.23;;;6.50;99.90;;;;;;4995961;28;20240;-74
2023/02/25 10:44:50;;;;;;;53.80;19.70;;;6.60;99.90;;;;;;4992416;28;20550;-73
2023/02/25 10:47:37;;;;;;;30.77;13.47;;;6.60;99.90;;;;;;4991941;28;20787;-73
2023/02/25 10:50:26;;;;;;;9.55;5.13;;;6.70;99.90;;;;;;4983792;28;20418;-73
2023/02/25 10:53:15;;;;;;;15.02;4.75;;;6.70;99.90;;;;;;4987941;28;20233;-73
2023/02/25 10:56:02;;;;;;;11.23;4.60;;;6.70;99.90;;;;;;4996626;28;20278;-74
2023/02/25 10:59:01;;;;;;;10.43;4.50;;;6.80;99.90;;;;;;4985678;28;20965;-73
2023/02/25 11:01:46;;;;;;;8.03;3.97;;;6.70;99.90;;;;;;4984857;28;20618;-72
2023/02/25 11:04:36;;;;;;;7.93;3.27;;;6.80;99.90;;;;;;4981783;28;20598;-71
2023/02/25 11:07:31;;;;;;;15.05;3.83;;;6.80;99.90;;;;;;4987080;28;20564;-71
2023/02/25 11:10:19;;;;;;;10.73;3.27;;;6.70;99.90;;;;;;4990749;28;20231;-72
2023/02/25 11:13:06;;;;;;;9.43;3.87;;;6.60;99.90;;;;;;4988838;28;20836;-72
2023/02/25 11:15:51;;;;;;;10.80;3.43;;;6.60;99.90;;;;;;4994961;28;20903;-72
2023/02/25 11:18:38;;;;;;;10.17;2.90;;;6.60;99.90;;;;;;4987109;28;20487;-73
2023/02/25 11:21:33;;;;;;;13.73;4.40;;;6.70;99.90;;;;;;4990370;28;20472;-72
2023/02/25 11:24:27;;;;;;;16.10;3.47;;;6.80;99.90;;;;;;4989377;28;20468;-72
2023/02/25 11:27:27;;;;;;;11.87;3.77;;;7.00;99.90;;;;;;4980420;28;20457;-71
2023/02/25 11:30:20;;;;;;;12.80;4.67;;;7.00;99.90;;;;;;4984825;28;20951;-73
2023/02/25 11:33:14;;;;;;;7.68;2.78;;;7.00;99.90;;;;;;4989047;28;20443;-72
2023/02/25 11:36:01;;;;;;;10.23;4.57;;;7.00;99.90;;;;;;4989384;28;20209;-72
2023/02/25 11:38:47;;;;;;;10.80;2.80;;;6.90;99.90;;;;;;4991088;28;20436;-72
2023/02/25 11:41:32;;;;;;;9.07;3.50;;;7.00;99.90;;;;;;4983692;28;20486;-73
2023/02/25 11:44:26;;;;;;;9.67;3.30;;;6.90;99.90;;;;;;4995224;28;20463;-73
2023/02/25 11:47:24;;;;;;;7.93;3.95;;;7.00;99.90;;;;;;4996012;28;20967;-72
2023/02/25 11:50:22;;;;;;;7.90;2.70;;;7.00;99.90;;;;;;4986627;28;20202;-72
2023/02/25 11:53:31;;;;;;;12.60;3.07;;;7.10;99.90;;;;;;4987086;28;20601;-72
2023/02/25 11:56:23;;;;;;;10.43;3.20;;;6.90;99.90;;;;;;4985250;28;20517;-71
2023/02/25 11:59:38;;;;;;;11.07;3.07;;;6.90;99.90;;;;;;4985029;28;20463;-72
2023/02/25 12:02:38;;;;;;;9.50;3.50;;;6.90;99.90;;;;;;4979645;28;22963;-72
2023/02/25 12:05:55;;;;;;;13.47;3.27;;;6.90;99.90;;;;;;4982894;28;20949;-73
2023/02/25 12:09:12;;;;;;;8.10;2.97;;;6.90;99.90;;;;;;4981505;28;20456;-71
2023/02/25 12:12:40;;;;;;;9.90;3.43;;;6.90;99.90;;;;;;4981634;28;20785;-72
2023/02/25 12:16:02;;;;;;;10.13;3.10;;;7.10;99.90;;;;;;4999086;28;20448;-72
2023/02/25 12:19:18;;;;;;;11.50;2.97;;;7.20;99.90;;;;;;4982225;28;20977;-73
2023/02/25 12:22:38;;;;;;;9.20;3.40;;;7.40;99.90;;;;;;4985493;28;20590;-73
2023/02/25 12:25:30;;;;;;;6.37;3.10;;;7.70;99.40;;;;;;4991730;28;20455;-72
2023/02/25 12:28:50;;;;;;;9.70;3.47;;;7.80;99.10;;;;;;4994475;28;20445;-72
2023/02/25 12:32:06;;;;;;;9.77;2.83;;;7.80;96.40;;;;;;4982342;28;20449;-74
2023/02/25 12:35:25;;;;;;;9.80;2.80;;;7.70;95.90;;;;;;4987697;28;20422;-73
2023/02/25 12:39:08;;;;;;;10.95;3.20;;;7.60;93.70;;;;;;4997528;28;20860;-73
2023/02/25 12:42:02;;;;;;;14.80;2.70;;;7.40;88.00;;;;;;4989906;28;20235;-71
2023/02/25 12:45:21;;;;;;;7.53;3.23;;;7.50;86.10;;;;;;4994250;28;20795;-73
2023/02/25 12:48:37;;;;;;;10.43;2.73;;;7.50;86.80;;;;;;4983730;28;20463;-73
2023/02/25 12:51:44;;;;;;;13.47;2.50;;;7.50;87.70;;;;;;4983811;28;20875;-73
2023/02/25 12:54:53;;;;;;;8.37;2.60;;;7.50;88.10;;;;;;4991903;28;20476;-73
2023/02/25 12:57:49;;;;;;;8.20;2.70;;;7.40;90.10;;;;;;4989618;28;20973;-73
2023/02/25 13:01:08;;;;;;;11.67;3.20;;;7.60;88.30;;;;;;4987519;28;20480;-73
2023/02/25 13:04:13;;;;;;;7.63;2.40;;;7.60;89.00;;;;;;5003587;28;20869;-73
2023/02/25 13:07:26;;;;;;;14.43;2.87;;;7.70;84.30;;;;;;4992850;28;20436;-73
2023/02/25 13:10:30;;;;;;;7.37;2.67;;;7.60;85.70;;;;;;4986773;28;20463;-73
2023/02/25 13:13:36;;;;;;;9.93;2.67;;;7.60;88.40;;;;;;4996680;28;20459;-72
2023/02/25 13:16:32;;;;;;;9.30;2.50;;;7.20;90.90;;;;;;4993578;28;20397;-73
2023/02/25 13:19:36;;;;;;;7.63;2.70;;;7.10;92.80;;;;;;4994219;28;20586;-72
2023/02/25 13:22:40;;;;;;;6.90;2.50;;;7.10;93.60;;;;;;4996436;28;20832;-73
2023/02/25 13:25:44;;;;;;;20.70;3.23;;;7.10;96.50;;;;;;5001223;28;20601;-72
2023/02/25 13:28:44;;;;;;;8.27;2.70;;;7.20;97.20;;;;;;4995972;28;20995;-73
2023/02/25 13:31:39;;;;;;;8.23;2.60;;;7.20;96.70;;;;;;4989187;28;20443;-73
2023/02/25 13:34:38;;;;;;;3.57;1.80;;;7.10;98.90;;;;;;4998991;28;20967;-73
2023/02/25 13:37:41;;;;;;;42.30;16.30;;;7.00;99.90;;;;;;4992569;28;20447;-73
2023/02/25 13:40:50;;;;;;;12.60;5.68;;;6.90;99.90;;;;;;4982903;28;20207;-73
2023/02/25 13:43:55;;;;;;;5.67;3.70;;;7.00;99.90;;;;;;5001264;28;20240;-73
2023/02/25 13:46:52;;;;;;;27.17;12.40;;;7.10;99.90;;;;;;4993342;28;20441;-73
2023/02/25 13:50:05;;;;;;;19.77;9.17;;;7.40;99.90;;;;;;4977498;28;20605;-73
2023/02/25 13:53:11;;;;;;;7.60;2.93;;;7.30;99.90;;;;;;4983435;28;20444;-73
2023/02/25 13:56:21;;;;;;;5.50;1.50;;;7.20;99.90;;;;;;4985642;28;20431;-73
2023/02/25 13:59:39;;;;;;;4.65;2.55;;;7.20;99.90;;;;;;4982422;28;20452;-73
2023/02/25 14:02:41;;;;;;;3.83;1.83;;;7.50;99.90;;;;;;4959101;28;20217;-73
2023/02/25 14:05:50;;;;;;;4.60;2.33;;;8.40;99.90;;;;;;4985347;28;20523;-74
2023/02/25 14:09:10;;;;;;;3.50;1.77;;;9.50;94.60;;;;;;4984221;28;20464;-73
2023/02/25 14:12:04;;;;;;;6.50;1.83;;;10.30;83.70;;;;;;4984144;28;20423;-73
2023/02/25 14:15:18;;;;;;;2.80;1.57;;;11.00;72.00;;;;;;4987199;28;20511;-73
2023/02/25 14:18:34;;;;;;;3.60;1.60;;;11.90;60.00;;;;;;4979542;28;20502;-73
2023/02/25 14:21:49;;;;;;;3.67;2.23;;;12.50;53.40;;;;;;4987869;28;20592;-74
2023/02/25 14:24:42;;;;;;;2.53;1.57;;;12.70;39.40;;;;;;4984810;28;20525;-73
2023/02/25 14:27:33;;;;;;;5.33;1.83;;;12.30;40.30;;;;;;4983513;28;20550;-73
2023/02/25 14:30:25;;;;;;;5.83;1.47;;;12.80;42.20;;;;;;4984660;28;20435;-74
2023/02/25 14:33:35;;;;;;;3.20;1.43;;;13.30;40.80;;;;;;4987198;28;20558;-73
2023/02/25 14:37:01;;;;;;;3.20;1.37;;;13.80;38.80;;;;;;4984924;28;20445;-73
2023/02/25 14:40:04;;;;;;;3.70;1.10;;;14.10;33.30;;;;;;4986361;28;20453;-73
2023/02/25 14:43:15;;;;;;;3.70;1.23;;;14.00;31.50;;;;;;4990630;28;20484;-73
2023/02/25 14:46:10;;;;;;;3.30;1.20;;;12.90;30.30;;;;;;4989351;28;20876;-74
2023/02/25 14:49:03;;;;;;;3.17;1.47;;;11.70;33.70;;;;;;4986705;28;20882;-73
2023/02/25 14:52:18;;;;;;;2.77;1.30;;;10.40;39.70;;;;;;4991381;28;20430;-73
2023/02/25 14:55:29;;;;;;;2.50;2.10;;;9.80;47.60;;;;;;4993509;28;20457;-73
2023/02/25 14:58:47;;;;;;;3.47;1.43;;;9.30;51.60;;;;;;4982315;28;20567;-73
2023/02/25 15:01:54;;;;;;;4.30;1.40;;;9.00;54.70;;;;;;4993090;28;20524;-73